sensor_id;sensor_type;location;lat;lon;timestamp;P1;durP1;ratioP1;P2;durP2;ratioP2
40595;SDS011;26304;48.794;9.820;2022-10-16T00:03:50;1.52;;;1.42;;
40595;SDS011;26304;48.794;9.820;2022-10-16T00:09:33;1.92;;;1.70;;
40595;SDS011;26304;48.794;9.820;2022-10-16T00:15:16;1.88;;;1.38;;
40595;SDS011;26304;48.794;9.820;2022-10-16T00:21:02;1.55;;;1.45;;
40595;SDS011;26304;48.794;9.820;2022-10-16T00:26:48;1.52;;;1.42;;
40595;SDS011;26304;48.794;9.820;2022-10-16T00:32:31;3.28;;;2.03;;
40595;SDS011;26304;48.794;9.820;2022-10-16T00:38:15;1.95;;;1.60;;
40595;SDS011;26304;48.794;9.820;2022-10-16T00:43:59;1.80;;;1.45;;
40595;SDS011;26304;48.794;9.820;2022-10-16T00:49:42;2.15;;;1.50;;
40595;SDS011;26304;48.794;9.820;2022-10-16T00:55:26;1.40;;;1.30;;
40595;SDS011;26304;48.794;9.820;2022-10-16T01:01:11;1.48;;;1.38;;
40595;SDS011;26304;48.794;9.820;2022-10-16T01:06:55;0.80;;;0.80;;
40595;SDS011;26304;48.794;9.820;2022-10-16T01:12:50;3.28;;;1.30;;
40595;SDS011;26304;48.794;9.820;2022-10-16T01:18:37;2.05;;;1.10;;
40595;SDS011;26304;48.794;9.820;2022-10-16T01:24:27;2.03;;;1.30;;
40595;SDS011;26304;48.794;9.820;2022-10-16T01:30:17;1.30;;;1.20;;
40595;SDS011;26304;48.794;9.820;2022-10-16T01:36:06;1.33;;;1.23;;
40595;SDS011;26304;48.794;9.820;2022-10-16T01:41:54;1.55;;;1.33;;
40595;SDS011;26304;48.794;9.820;2022-10-16T01:47:44;1.75;;;1.20;;
40595;SDS011;26304;48.794;9.820;2022-10-16T01:53:28;1.20;;;1.10;;
40595;SDS011;26304;48.794;9.820;2022-10-16T01:59:12;1.23;;;1.00;;
40595;SDS011;26304;48.794;9.820;2022-10-16T02:05:01;1.08;;;1.00;;
40595;SDS011;26304;48.794;9.820;2022-10-16T02:10:50;2.30;;;1.05;;
40595;SDS011;26304;48.794;9.820;2022-10-16T02:16:33;1.08;;;0.90;;
40595;SDS011;26304;48.794;9.820;2022-10-16T02:22:20;1.25;;;1.08;;
40595;SDS011;26304;48.794;9.820;2022-10-16T02:28:08;0.85;;;0.85;;
40595;SDS011;26304;48.794;9.820;2022-10-16T02:33:58;2.15;;;1.40;;
40595;SDS011;26304;48.794;9.820;2022-10-16T02:39:43;1.02;;;1.02;;
40595;SDS011;26304;48.794;9.820;2022-10-16T02:45:25;1.42;;;1.33;;
40595;SDS011;26304;48.794;9.820;2022-10-16T02:51:08;1.30;;;1.17;;
40595;SDS011;26304;48.794;9.820;2022-10-16T02:56:51;1.35;;;1.17;;
40595;SDS011;26304;48.794;9.820;2022-10-16T03:02:34;1.30;;;1.20;;
40595;SDS011;26304;48.794;9.820;2022-10-16T03:08:17;1.67;;;1.20;;
40595;SDS011;26304;48.794;9.820;2022-10-16T03:14:05;1.25;;;1.15;;
40595;SDS011;26304;48.794;9.820;2022-10-16T03:19:48;1.35;;;1.25;;
40595;SDS011;26304;48.794;9.820;2022-10-16T03:25:30;1.40;;;1.30;;
40595;SDS011;26304;48.794;9.820;2022-10-16T03:31:14;1.30;;;1.20;;
40595;SDS011;26304;48.794;9.820;2022-10-16T03:36:56;1.35;;;1.27;;
40595;SDS011;26304;48.794;9.820;2022-10-16T03:42:39;1.20;;;1.20;;
40595;SDS011;26304;48.794;9.820;2022-10-16T03:48:23;1.10;;;1.05;;
40595;SDS011;26304;48.794;9.820;2022-10-16T03:54:05;1.17;;;1.00;;
40595;SDS011;26304;48.794;9.820;2022-10-16T03:59:47;2.08;;;1.10;;
40595;SDS011;26304;48.794;9.820;2022-10-16T04:05:31;3.40;;;1.20;;
40595;SDS011;26304;48.794;9.820;2022-10-16T04:11:13;1.20;;;1.10;;
40595;SDS011;26304;48.794;9.820;2022-10-16T04:16:56;1.10;;;0.80;;
40595;SDS011;26304;48.794;9.820;2022-10-16T04:22:40;2.22;;;0.93;;
40595;SDS011;26304;48.794;9.820;2022-10-16T04:28:22;1.58;;;1.15;;
40595;SDS011;26304;48.794;9.820;2022-10-16T04:34:04;3.45;;;1.48;;
40595;SDS011;26304;48.794;9.820;2022-10-16T04:39:48;2.78;;;1.15;;
40595;SDS011;26304;48.794;9.820;2022-10-16T04:45:31;1.13;;;0.80;;
40595;SDS011;26304;48.794;9.820;2022-10-16T04:51:13;2.35;;;0.90;;
40595;SDS011;26304;48.794;9.820;2022-10-16T04:56:57;3.22;;;1.00;;
40595;SDS011;26304;48.794;9.820;2022-10-16T05:02:39;2.30;;;1.02;;
40595;SDS011;26304;48.794;9.820;2022-10-16T05:08:22;1.35;;;1.10;;
40595;SDS011;26304;48.794;9.820;2022-10-16T05:14:05;1.30;;;1.20;;
40595;SDS011;26304;48.794;9.820;2022-10-16T05:19:48;1.35;;;0.90;;
40595;SDS011;26304;48.794;9.820;2022-10-16T05:25:30;0.90;;;0.90;;
40595;SDS011;26304;48.794;9.820;2022-10-16T05:31:14;1.10;;;1.00;;
40595;SDS011;26304;48.794;9.820;2022-10-16T05:36:56;0.95;;;0.80;;
40595;SDS011;26304;48.794;9.820;2022-10-16T05:42:39;1.20;;;1.10;;
40595;SDS011;26304;48.794;9.820;2022-10-16T05:48:23;2.17;;;0.93;;
40595;SDS011;26304;48.794;9.820;2022-10-16T05:54:06;1.73;;;0.95;;
40595;SDS011;26304;48.794;9.820;2022-10-16T05:59:48;1.00;;;0.80;;
40595;SDS011;26304;48.794;9.820;2022-10-16T06:05:35;1.65;;;0.93;;
40595;SDS011;26304;48.794;9.820;2022-10-16T06:11:18;1.00;;;0.90;;
40595;SDS011;26304;48.794;9.820;2022-10-16T06:17:05;1.23;;;1.10;;
40595;SDS011;26304;48.794;9.820;2022-10-16T06:22:49;2.60;;;1.40;;
40595;SDS011;26304;48.794;9.820;2022-10-16T06:28:31;1.23;;;1.13;;
40595;SDS011;26304;48.794;9.820;2022-10-16T06:34:14;2.17;;;1.10;;
40595;SDS011;26304;48.794;9.820;2022-10-16T06:39:57;1.40;;;1.30;;
40595;SDS011;26304;48.794;9.820;2022-10-16T06:45:40;2.03;;;1.50;;
40595;SDS011;26304;48.794;9.820;2022-10-16T06:51:24;2.60;;;1.77;;
40595;SDS011;26304;48.794;9.820;2022-10-16T06:57:08;1.95;;;1.67;;
40595;SDS011;26304;48.794;9.820;2022-10-16T07:02:50;3.63;;;2.17;;
40595;SDS011;26304;48.794;9.820;2022-10-16T07:08:33;3.53;;;1.70;;
40595;SDS011;26304;48.794;9.820;2022-10-16T07:14:18;3.17;;;2.00;;
40595;SDS011;26304;48.794;9.820;2022-10-16T07:20:02;3.45;;;1.75;;
40595;SDS011;26304;48.794;9.820;2022-10-16T07:25:44;1.58;;;1.45;;
40595;SDS011;26304;48.794;9.820;2022-10-16T07:31:28;2.15;;;1.98;;
40595;SDS011;26304;48.794;9.820;2022-10-16T07:37:11;2.47;;;1.70;;
40595;SDS011;26304;48.794;9.820;2022-10-16T07:42:53;2.67;;;1.60;;
40595;SDS011;26304;48.794;9.820;2022-10-16T07:48:37;4.55;;;1.88;;
40595;SDS011;26304;48.794;9.820;2022-10-16T07:54:19;6.90;;;1.95;;
40595;SDS011;26304;48.794;9.820;2022-10-16T08:00:02;4.97;;;2.20;;
40595;SDS011;26304;48.794;9.820;2022-10-16T08:05:48;3.20;;;1.60;;
40595;SDS011;26304;48.794;9.820;2022-10-16T08:11:31;2.47;;;1.50;;
40595;SDS011;26304;48.794;9.820;2022-10-16T08:17:14;2.00;;;1.50;;
40595;SDS011;26304;48.794;9.820;2022-10-16T08:22:58;1.75;;;1.65;;
40595;SDS011;26304;48.794;9.820;2022-10-16T08:28:41;1.65;;;1.55;;
40595;SDS011;26304;48.794;9.820;2022-10-16T08:34:24;2.55;;;1.65;;
40595;SDS011;26304;48.794;9.820;2022-10-16T08:40:12;6.97;;;2.75;;
40595;SDS011;26304;48.794;9.820;2022-10-16T08:46:04;6.43;;;2.65;;
40595;SDS011;26304;48.794;9.820;2022-10-16T08:51:56;2.67;;;1.88;;
40595;SDS011;26304;48.794;9.820;2022-10-16T08:57:40;3.50;;;2.10;;
40595;SDS011;26304;48.794;9.820;2022-10-16T09:03:25;3.60;;;2.00;;
40595;SDS011;26304;48.794;9.820;2022-10-16T09:15:42;3.08;;;2.15;;
40595;SDS011;26304;48.794;9.820;2022-10-16T09:21:33;2.53;;;2.15;;
40595;SDS011;26304;48.794;9.820;2022-10-16T09:27:18;3.25;;;2.22;;
40595;SDS011;26304;48.794;9.820;2022-10-16T09:33:01;4.10;;;2.40;;
40595;SDS011;26304;48.794;9.820;2022-10-16T09:38:45;3.97;;;1.95;;
40595;SDS011;26304;48.794;9.820;2022-10-16T09:44:29;4.03;;;2.28;;
40595;SDS011;26304;48.794;9.820;2022-10-16T09:50:21;4.13;;;2.10;;
40595;SDS011;26304;48.794;9.820;2022-10-16T09:56:07;2.80;;;2.08;;
40595;SDS011;26304;48.794;9.820;2022-10-16T10:01:54;2.60;;;1.70;;
40595;SDS011;26304;48.794;9.820;2022-10-16T10:07:39;3.00;;;2.25;;
40595;SDS011;26304;48.794;9.820;2022-10-16T10:13:26;2.28;;;1.52;;
40595;SDS011;26304;48.794;9.820;2022-10-16T10:19:12;2.67;;;1.85;;
40595;SDS011;26304;48.794;9.820;2022-10-16T10:31:24;2.30;;;1.83;;
40595;SDS011;26304;48.794;9.820;2022-10-16T10:37:16;2.45;;;1.75;;
40595;SDS011;26304;48.794;9.820;2022-10-16T10:43:12;4.65;;;1.88;;
40595;SDS011;26304;48.794;9.820;2022-10-16T10:49:13;1.55;;;1.45;;
40595;SDS011;26304;48.794;9.820;2022-10-16T10:55:14;1.40;;;1.00;;
40595;SDS011;26304;48.794;9.820;2022-10-16T11:01:02;1.77;;;1.60;;
40595;SDS011;26304;48.794;9.820;2022-10-16T11:06:52;3.13;;;1.40;;
40595;SDS011;26304;48.794;9.820;2022-10-16T11:12:41;1.33;;;1.20;;
40595;SDS011;26304;48.794;9.820;2022-10-16T11:18:27;3.25;;;1.25;;
40595;SDS011;26304;48.794;9.820;2022-10-16T11:24:18;1.50;;;1.40;;
40595;SDS011;26304;48.794;9.820;2022-10-16T11:30:11;1.60;;;1.20;;
40595;SDS011;26304;48.794;9.820;2022-10-16T11:36:00;1.98;;;1.20;;
40595;SDS011;26304;48.794;9.820;2022-10-16T11:41:49;1.35;;;1.20;;
40595;SDS011;26304;48.794;9.820;2022-10-16T11:47:34;1.42;;;1.17;;
40595;SDS011;26304;48.794;9.820;2022-10-16T11:53:20;3.22;;;1.20;;
40595;SDS011;26304;48.794;9.820;2022-10-16T11:59:16;3.42;;;1.10;;
40595;SDS011;26304;48.794;9.820;2022-10-16T12:05:10;1.27;;;1.17;;
40595;SDS011;26304;48.794;9.820;2022-10-16T12:11:07;3.00;;;1.20;;
40595;SDS011;26304;48.794;9.820;2022-10-16T12:16:53;1.58;;;1.10;;
40595;SDS011;26304;48.794;9.820;2022-10-16T12:22:40;1.42;;;0.90;;
40595;SDS011;26304;48.794;9.820;2022-10-16T12:28:26;0.90;;;0.90;;
40595;SDS011;26304;48.794;9.820;2022-10-16T12:34:19;1.10;;;1.00;;
40595;SDS011;26304;48.794;9.820;2022-10-16T12:40:11;1.65;;;1.27;;
40595;SDS011;26304;48.794;9.820;2022-10-16T12:45:59;2.00;;;1.00;;
40595;SDS011;26304;48.794;9.820;2022-10-16T12:51:47;1.05;;;0.98;;
40595;SDS011;26304;48.794;9.820;2022-10-16T12:57:39;2.42;;;1.33;;
40595;SDS011;26304;48.794;9.820;2022-10-16T13:10:14;1.45;;;0.90;;
40595;SDS011;26304;48.794;9.820;2022-10-16T13:16:07;1.52;;;1.23;;
40595;SDS011;26304;48.794;9.820;2022-10-16T13:21:58;2.08;;;1.10;;
40595;SDS011;26304;48.794;9.820;2022-10-16T13:27:51;1.40;;;1.00;;
40595;SDS011;26304;48.794;9.820;2022-10-16T13:33:46;1.40;;;0.70;;
40595;SDS011;26304;48.794;9.820;2022-10-16T13:39:31;1.00;;;1.00;;
40595;SDS011;26304;48.794;9.820;2022-10-16T13:45:18;1.23;;;1.10;;
40595;SDS011;26304;48.794;9.820;2022-10-16T13:51:03;0.80;;;0.80;;
40595;SDS011;26304;48.794;9.820;2022-10-16T13:56:48;1.33;;;0.95;;
40595;SDS011;26304;48.794;9.820;2022-10-16T14:02:33;0.82;;;0.82;;
40595;SDS011;26304;48.794;9.820;2022-10-16T14:08:17;1.23;;;1.00;;
40595;SDS011;26304;48.794;9.820;2022-10-16T14:14:00;1.35;;;1.25;;
40595;SDS011;26304;48.794;9.820;2022-10-16T14:19:46;1.30;;;1.00;;
40595;SDS011;26304;48.794;9.820;2022-10-16T14:25:31;1.17;;;1.10;;
40595;SDS011;26304;48.794;9.820;2022-10-16T14:31:22;1.10;;;1.00;;
40595;SDS011;26304;48.794;9.820;2022-10-16T14:37:15;1.67;;;1.13;;
40595;SDS011;26304;48.794;9.820;2022-10-16T14:43:05;2.05;;;1.15;;
40595;SDS011;26304;48.794;9.820;2022-10-16T14:48:48;1.67;;;1.20;;
40595;SDS011;26304;48.794;9.820;2022-10-16T14:54:33;0.90;;;0.90;;
40595;SDS011;26304;48.794;9.820;2022-10-16T15:00:16;0.90;;;0.90;;
40595;SDS011;26304;48.794;9.820;2022-10-16T15:06:04;1.65;;;1.10;;
40595;SDS011;26304;48.794;9.820;2022-10-16T15:11:54;2.42;;;1.20;;
40595;SDS011;26304;48.794;9.820;2022-10-16T15:17:36;1.40;;;1.30;;
40595;SDS011;26304;48.794;9.820;2022-10-16T15:23:19;1.17;;;1.08;;
40595;SDS011;26304;48.794;9.820;2022-10-16T15:29:04;1.10;;;1.10;;
40595;SDS011;26304;48.794;9.820;2022-10-16T15:34:47;1.10;;;1.00;;
40595;SDS011;26304;48.794;9.820;2022-10-16T15:40:29;4.80;;;1.20;;
40595;SDS011;26304;48.794;9.820;2022-10-16T15:46:13;2.03;;;0.98;;
40595;SDS011;26304;48.794;9.820;2022-10-16T15:51:56;1.17;;;1.10;;
40595;SDS011;26304;48.794;9.820;2022-10-16T15:57:38;1.50;;;1.40;;
40595;SDS011;26304;48.794;9.820;2022-10-16T16:03:24;2.35;;;2.15;;
40595;SDS011;26304;48.794;9.820;2022-10-16T16:09:07;2.28;;;2.17;;
40595;SDS011;26304;48.794;9.820;2022-10-16T16:14:50;3.92;;;2.05;;
40595;SDS011;26304;48.794;9.820;2022-10-16T16:20:33;2.03;;;1.92;;
40595;SDS011;26304;48.794;9.820;2022-10-16T16:26:22;2.85;;;1.98;;
40595;SDS011;26304;48.794;9.820;2022-10-16T16:32:06;3.13;;;1.85;;
40595;SDS011;26304;48.794;9.820;2022-10-16T16:37:50;1.70;;;1.60;;
40595;SDS011;26304;48.794;9.820;2022-10-16T16:43:33;3.50;;;1.50;;
40595;SDS011;26304;48.794;9.820;2022-10-16T16:49:15;5.25;;;1.77;;
40595;SDS011;26304;48.794;9.820;2022-10-16T16:54:59;2.08;;;1.50;;
40595;SDS011;26304;48.794;9.820;2022-10-16T17:00:44;5.43;;;2.00;;
40595;SDS011;26304;48.794;9.820;2022-10-16T17:06:27;8.43;;;2.33;;
40595;SDS011;26304;48.794;9.820;2022-10-16T17:12:12;5.60;;;2.08;;
40595;SDS011;26304;48.794;9.820;2022-10-16T17:17:55;8.68;;;2.85;;
40595;SDS011;26304;48.794;9.820;2022-10-16T17:23:37;8.95;;;2.45;;
40595;SDS011;26304;48.794;9.820;2022-10-16T17:29:21;10.77;;;2.72;;
40595;SDS011;26304;48.794;9.820;2022-10-16T17:35:04;5.72;;;2.55;;
40595;SDS011;26304;48.794;9.820;2022-10-16T17:40:47;3.75;;;2.05;;
40595;SDS011;26304;48.794;9.820;2022-10-16T17:46:31;5.72;;;2.42;;
40595;SDS011;26304;48.794;9.820;2022-10-16T17:52:14;5.20;;;2.28;;
40595;SDS011;26304;48.794;9.820;2022-10-16T17:57:56;4.65;;;2.15;;
40595;SDS011;26304;48.794;9.820;2022-10-16T18:03:40;4.57;;;2.42;;
40595;SDS011;26304;48.794;9.820;2022-10-16T18:09:23;4.05;;;2.05;;
40595;SDS011;26304;48.794;9.820;2022-10-16T18:15:05;3.10;;;2.35;;
40595;SDS011;26304;48.794;9.820;2022-10-16T18:20:56;5.28;;;2.28;;
40595;SDS011;26304;48.794;9.820;2022-10-16T18:26:39;2.28;;;1.80;;
40595;SDS011;26304;48.794;9.820;2022-10-16T18:32:21;5.20;;;2.22;;
40595;SDS011;26304;48.794;9.820;2022-10-16T18:38:05;4.82;;;2.30;;
40595;SDS011;26304;48.794;9.820;2022-10-16T18:43:47;3.70;;;2.30;;
40595;SDS011;26304;48.794;9.820;2022-10-16T18:49:30;3.35;;;2.38;;
40595;SDS011;26304;48.794;9.820;2022-10-16T18:55:14;2.80;;;1.92;;
40595;SDS011;26304;48.794;9.820;2022-10-16T19:01:01;2.35;;;1.75;;
40595;SDS011;26304;48.794;9.820;2022-10-16T19:06:45;4.32;;;2.30;;
40595;SDS011;26304;48.794;9.820;2022-10-16T19:12:30;1.77;;;1.67;;
40595;SDS011;26304;48.794;9.820;2022-10-16T19:18:13;2.72;;;2.17;;
40595;SDS011;26304;48.794;9.820;2022-10-16T19:23:56;1.92;;;1.80;;
40595;SDS011;26304;48.794;9.820;2022-10-16T19:29:40;2.28;;;1.65;;
40595;SDS011;26304;48.794;9.820;2022-10-16T19:35:22;4.07;;;1.60;;
40595;SDS011;26304;48.794;9.820;2022-10-16T19:41:06;1.58;;;1.48;;
40595;SDS011;26304;48.794;9.820;2022-10-16T19:46:50;1.77;;;1.30;;
40595;SDS011;26304;48.794;9.820;2022-10-16T19:52:32;1.65;;;1.50;;
40595;SDS011;26304;48.794;9.820;2022-10-16T19:58:15;1.80;;;1.50;;
40595;SDS011;26304;48.794;9.820;2022-10-16T20:03:59;2.92;;;1.27;;
40595;SDS011;26304;48.794;9.820;2022-10-16T20:09:41;1.65;;;1.55;;
40595;SDS011;26304;48.794;9.820;2022-10-16T20:15:24;1.30;;;1.20;;
40595;SDS011;26304;48.794;9.820;2022-10-16T20:21:11;1.30;;;1.20;;
40595;SDS011;26304;48.794;9.820;2022-10-16T20:26:55;3.53;;;1.58;;
40595;SDS011;26304;48.794;9.820;2022-10-16T20:32:39;1.40;;;1.30;;
40595;SDS011;26304;48.794;9.820;2022-10-16T20:38:24;1.48;;;1.35;;
40595;SDS011;26304;48.794;9.820;2022-10-16T20:44:06;2.20;;;1.48;;
40595;SDS011;26304;48.794;9.820;2022-10-16T20:49:48;2.05;;;1.60;;
40595;SDS011;26304;48.794;9.820;2022-10-16T20:55:35;2.60;;;1.30;;
40595;SDS011;26304;48.794;9.820;2022-10-16T21:01:19;1.83;;;1.63;;
40595;SDS011;26304;48.794;9.820;2022-10-16T21:07:02;1.38;;;1.27;;
40595;SDS011;26304;48.794;9.820;2022-10-16T21:12:46;2.60;;;2.10;;
40595;SDS011;26304;48.794;9.820;2022-10-16T21:18:28;2.78;;;2.13;;
40595;SDS011;26304;48.794;9.820;2022-10-16T21:24:11;2.00;;;1.90;;
40595;SDS011;26304;48.794;9.820;2022-10-16T21:29:55;1.75;;;1.65;;
40595;SDS011;26304;48.794;9.820;2022-10-16T21:35:37;3.28;;;2.17;;
40595;SDS011;26304;48.794;9.820;2022-10-16T21:41:20;2.25;;;1.50;;
40595;SDS011;26304;48.794;9.820;2022-10-16T21:47:05;2.97;;;1.50;;
40595;SDS011;26304;48.794;9.820;2022-10-16T21:52:48;1.42;;;1.33;;
40595;SDS011;26304;48.794;9.820;2022-10-16T21:58:30;2.33;;;1.48;;
40595;SDS011;26304;48.794;9.820;2022-10-16T22:04:15;1.50;;;1.40;;
40595;SDS011;26304;48.794;9.820;2022-10-16T22:09:57;1.75;;;1.42;;
40595;SDS011;26304;48.794;9.820;2022-10-16T22:15:46;2.08;;;1.30;;
40595;SDS011;26304;48.794;9.820;2022-10-16T22:21:33;1.55;;;1.33;;
40595;SDS011;26304;48.794;9.820;2022-10-16T22:27:16;1.40;;;1.30;;
40595;SDS011;26304;48.794;9.820;2022-10-16T22:32:59;1.92;;;1.48;;
40595;SDS011;26304;48.794;9.820;2022-10-16T22:38:43;1.60;;;1.30;;
40595;SDS011;26304;48.794;9.820;2022-10-16T22:44:25;2.70;;;1.50;;
40595;SDS011;26304;48.794;9.820;2022-10-16T22:50:08;1.30;;;1.00;;
40595;SDS011;26304;48.794;9.820;2022-10-16T22:55:52;1.40;;;1.30;;
40595;SDS011;26304;48.794;9.820;2022-10-16T23:01:35;2.38;;;1.70;;
40595;SDS011;26304;48.794;9.820;2022-10-16T23:07:19;1.33;;;1.23;;
40595;SDS011;26304;48.794;9.820;2022-10-16T23:13:02;2.35;;;1.17;;
40595;SDS011;26304;48.794;9.820;2022-10-16T23:18:45;3.33;;;1.40;;
40595;SDS011;26304;48.794;9.820;2022-10-16T23:24:29;1.48;;;1.38;;
40595;SDS011;26304;48.794;9.820;2022-10-16T23:30:13;1.40;;;1.30;;
40595;SDS011;26304;48.794;9.820;2022-10-16T23:35:55;1.90;;;1.50;;
40595;SDS011;26304;48.794;9.820;2022-10-16T23:41:38;1.40;;;1.25;;
40595;SDS011;26304;48.794;9.820;2022-10-16T23:47:21;1.80;;;1.33;;
40595;SDS011;26304;48.794;9.820;2022-10-16T23:53:04;1.20;;;1.10;;
40595;SDS011;26304;48.794;9.820;2022-10-16T23:58:46;1.83;;;1.20;;
